sensor_id;sensor_type;location;lat;lon;timestamp;P1;durP1;ratioP1;P2;durP2;ratioP2
65033;SDS011;51601;51.356;12.458;2022-12-18T00:01:25;59.80;;;22.83;;
65033;SDS011;51601;51.356;12.458;2022-12-18T00:05:46;59.58;;;23.67;;
65033;SDS011;51601;51.356;12.458;2022-12-18T00:10:00;59.45;;;23.75;;
65033;SDS011;51601;51.356;12.458;2022-12-18T00:14:15;52.65;;;19.95;;
65033;SDS011;51601;51.356;12.458;2022-12-18T00:18:30;21.40;;;10.40;;
65033;SDS011;51601;51.356;12.458;2022-12-18T00:22:44;61.28;;;23.50;;
65033;SDS011;51601;51.356;12.458;2022-12-18T00:26:58;29.27;;;12.63;;
65033;SDS011;51601;51.356;12.458;2022-12-18T00:31:13;46.83;;;18.92;;
65033;SDS011;51601;51.356;12.458;2022-12-18T00:35:30;39.92;;;16.55;;
65033;SDS011;51601;51.356;12.458;2022-12-18T00:39:44;56.47;;;22.07;;
65033;SDS011;51601;51.356;12.458;2022-12-18T00:44:00;49.10;;;19.77;;
65033;SDS011;51601;51.356;12.458;2022-12-18T00:48:15;56.13;;;21.10;;
65033;SDS011;51601;51.356;12.458;2022-12-18T00:52:30;32.87;;;13.70;;
65033;SDS011;51601;51.356;12.458;2022-12-18T00:56:44;18.30;;;8.88;;
65033;SDS011;51601;51.356;12.458;2022-12-18T01:01:03;57.67;;;22.23;;
65033;SDS011;51601;51.356;12.458;2022-12-18T01:05:19;47.70;;;18.93;;
65033;SDS011;51601;51.356;12.458;2022-12-18T01:09:34;32.05;;;14.55;;
65033;SDS011;51601;51.356;12.458;2022-12-18T01:13:51;48.50;;;20.67;;
65033;SDS011;51601;51.356;12.458;2022-12-18T01:18:07;37.58;;;15.20;;
65033;SDS011;51601;51.356;12.458;2022-12-18T01:22:21;31.40;;;13.90;;
65033;SDS011;51601;51.356;12.458;2022-12-18T01:26:37;50.97;;;19.75;;
65033;SDS011;51601;51.356;12.458;2022-12-18T01:30:51;55.22;;;21.27;;
65033;SDS011;51601;51.356;12.458;2022-12-18T01:35:06;34.72;;;14.02;;
65033;SDS011;51601;51.356;12.458;2022-12-18T01:39:20;28.80;;;12.82;;
65033;SDS011;51601;51.356;12.458;2022-12-18T01:43:43;40.22;;;18.75;;
65033;SDS011;51601;51.356;12.458;2022-12-18T01:47:59;33.60;;;14.05;;
65033;SDS011;51601;51.356;12.458;2022-12-18T01:52:15;26.10;;;13.40;;
65033;SDS011;51601;51.356;12.458;2022-12-18T01:56:31;31.33;;;15.17;;
65033;SDS011;51601;51.356;12.458;2022-12-18T02:00:46;23.55;;;10.90;;
65033;SDS011;51601;51.356;12.458;2022-12-18T02:05:00;27.85;;;12.13;;
65033;SDS011;51601;51.356;12.458;2022-12-18T02:09:17;21.70;;;11.10;;
65033;SDS011;51601;51.356;12.458;2022-12-18T02:13:37;54.45;;;19.92;;
65033;SDS011;51601;51.356;12.458;2022-12-18T02:18:01;21.80;;;9.90;;
65033;SDS011;51601;51.356;12.458;2022-12-18T02:22:24;20.80;;;9.93;;
65033;SDS011;51601;51.356;12.458;2022-12-18T02:26:44;27.88;;;14.18;;
65033;SDS011;51601;51.356;12.458;2022-12-18T02:31:02;31.92;;;15.50;;
65033;SDS011;51601;51.356;12.458;2022-12-18T02:35:20;27.17;;;12.13;;
65033;SDS011;51601;51.356;12.458;2022-12-18T02:39:39;23.83;;;10.38;;
65033;SDS011;51601;51.356;12.458;2022-12-18T02:44:00;27.27;;;12.05;;
65033;SDS011;51601;51.356;12.458;2022-12-18T02:48:22;40.00;;;17.85;;
65033;SDS011;51601;51.356;12.458;2022-12-18T02:52:42;35.55;;;13.77;;
65033;SDS011;51601;51.356;12.458;2022-12-18T02:57:04;39.10;;;16.15;;
65033;SDS011;51601;51.356;12.458;2022-12-18T03:01:28;34.28;;;13.77;;
65033;SDS011;51601;51.356;12.458;2022-12-18T03:05:49;44.20;;;17.77;;
65033;SDS011;51601;51.356;12.458;2022-12-18T03:10:07;41.67;;;17.95;;
65033;SDS011;51601;51.356;12.458;2022-12-18T03:14:25;16.85;;;8.57;;
65033;SDS011;51601;51.356;12.458;2022-12-18T03:18:45;38.17;;;14.43;;
65033;SDS011;51601;51.356;12.458;2022-12-18T03:23:03;46.60;;;16.25;;
65033;SDS011;51601;51.356;12.458;2022-12-18T03:27:21;26.58;;;13.30;;
65033;SDS011;51601;51.356;12.458;2022-12-18T03:31:40;24.90;;;10.87;;
65033;SDS011;51601;51.356;12.458;2022-12-18T03:35:59;33.92;;;15.15;;
65033;SDS011;51601;51.356;12.458;2022-12-18T03:40:14;38.25;;;16.70;;
65033;SDS011;51601;51.356;12.458;2022-12-18T03:44:29;50.27;;;16.77;;
65033;SDS011;51601;51.356;12.458;2022-12-18T03:48:51;25.85;;;9.75;;
65033;SDS011;51601;51.356;12.458;2022-12-18T03:53:20;30.02;;;12.15;;
65033;SDS011;51601;51.356;12.458;2022-12-18T03:57:42;34.33;;;13.87;;
65033;SDS011;51601;51.356;12.458;2022-12-18T04:01:58;32.15;;;14.30;;
65033;SDS011;51601;51.356;12.458;2022-12-18T04:06:15;23.55;;;9.63;;
65033;SDS011;51601;51.356;12.458;2022-12-18T04:10:32;21.63;;;10.43;;
65033;SDS011;51601;51.356;12.458;2022-12-18T04:14:49;19.05;;;6.53;;
65033;SDS011;51601;51.356;12.458;2022-12-18T04:19:03;25.85;;;12.00;;
65033;SDS011;51601;51.356;12.458;2022-12-18T04:23:23;44.93;;;16.23;;
65033;SDS011;51601;51.356;12.458;2022-12-18T04:27:42;40.75;;;16.35;;
65033;SDS011;51601;51.356;12.458;2022-12-18T04:31:57;32.45;;;12.75;;
65033;SDS011;51601;51.356;12.458;2022-12-18T04:36:13;39.17;;;16.40;;
65033;SDS011;51601;51.356;12.458;2022-12-18T04:40:28;31.42;;;11.35;;
65033;SDS011;51601;51.356;12.458;2022-12-18T04:44:44;27.58;;;12.10;;
65033;SDS011;51601;51.356;12.458;2022-12-18T04:48:58;24.97;;;10.97;;
65033;SDS011;51601;51.356;12.458;2022-12-18T04:53:11;20.77;;;10.65;;
65033;SDS011;51601;51.356;12.458;2022-12-18T04:57:25;23.05;;;9.40;;
65033;SDS011;51601;51.356;12.458;2022-12-18T05:01:41;18.08;;;10.02;;
65033;SDS011;51601;51.356;12.458;2022-12-18T05:05:55;23.10;;;11.73;;
65033;SDS011;51601;51.356;12.458;2022-12-18T05:10:09;23.23;;;10.47;;
65033;SDS011;51601;51.356;12.458;2022-12-18T05:14:23;24.42;;;11.02;;
65033;SDS011;51601;51.356;12.458;2022-12-18T05:18:38;19.30;;;9.25;;
65033;SDS011;51601;51.356;12.458;2022-12-18T05:22:52;26.90;;;12.33;;
65033;SDS011;51601;51.356;12.458;2022-12-18T05:27:07;22.58;;;11.20;;
65033;SDS011;51601;51.356;12.458;2022-12-18T05:31:20;24.33;;;9.93;;
65033;SDS011;51601;51.356;12.458;2022-12-18T05:35:36;29.17;;;12.27;;
65033;SDS011;51601;51.356;12.458;2022-12-18T05:39:49;21.15;;;9.95;;
65033;SDS011;51601;51.356;12.458;2022-12-18T05:44:03;30.50;;;13.15;;
65033;SDS011;51601;51.356;12.458;2022-12-18T05:48:17;31.45;;;12.35;;
65033;SDS011;51601;51.356;12.458;2022-12-18T05:52:34;26.85;;;12.68;;
65033;SDS011;51601;51.356;12.458;2022-12-18T05:56:49;24.50;;;11.02;;
65033;SDS011;51601;51.356;12.458;2022-12-18T06:01:07;23.10;;;10.88;;
65033;SDS011;51601;51.356;12.458;2022-12-18T06:05:22;21.02;;;9.27;;
65033;SDS011;51601;51.356;12.458;2022-12-18T06:09:37;22.02;;;8.82;;
65033;SDS011;51601;51.356;12.458;2022-12-18T06:13:51;29.02;;;9.95;;
65033;SDS011;51601;51.356;12.458;2022-12-18T06:18:09;30.52;;;13.77;;
65033;SDS011;51601;51.356;12.458;2022-12-18T06:22:23;22.08;;;11.23;;
65033;SDS011;51601;51.356;12.458;2022-12-18T06:26:39;21.10;;;8.27;;
65033;SDS011;51601;51.356;12.458;2022-12-18T06:30:53;27.15;;;9.43;;
65033;SDS011;51601;51.356;12.458;2022-12-18T06:35:07;26.17;;;11.48;;
65033;SDS011;51601;51.356;12.458;2022-12-18T06:39:21;23.25;;;10.93;;
65033;SDS011;51601;51.356;12.458;2022-12-18T06:43:37;21.25;;;7.60;;
65033;SDS011;51601;51.356;12.458;2022-12-18T06:47:51;26.45;;;11.40;;
65033;SDS011;51601;51.356;12.458;2022-12-18T06:52:05;24.27;;;8.50;;
65033;SDS011;51601;51.356;12.458;2022-12-18T06:56:19;17.33;;;8.50;;
65033;SDS011;51601;51.356;12.458;2022-12-18T07:00:34;27.67;;;11.35;;
65033;SDS011;51601;51.356;12.458;2022-12-18T07:04:48;24.13;;;11.27;;
65033;SDS011;51601;51.356;12.458;2022-12-18T07:09:04;27.83;;;11.27;;
65033;SDS011;51601;51.356;12.458;2022-12-18T07:13:18;25.38;;;10.18;;
65033;SDS011;51601;51.356;12.458;2022-12-18T07:17:33;20.97;;;7.70;;
65033;SDS011;51601;51.356;12.458;2022-12-18T07:21:47;25.23;;;9.20;;
65033;SDS011;51601;51.356;12.458;2022-12-18T07:26:03;31.27;;;12.50;;
65033;SDS011;51601;51.356;12.458;2022-12-18T07:30:17;20.08;;;6.50;;
65033;SDS011;51601;51.356;12.458;2022-12-18T07:34:33;27.30;;;11.25;;
65033;SDS011;51601;51.356;12.458;2022-12-18T07:38:48;16.95;;;7.75;;
65033;SDS011;51601;51.356;12.458;2022-12-18T07:43:03;20.67;;;9.33;;
65033;SDS011;51601;51.356;12.458;2022-12-18T07:47:17;22.45;;;10.45;;
65033;SDS011;51601;51.356;12.458;2022-12-18T07:51:32;29.77;;;11.75;;
65033;SDS011;51601;51.356;12.458;2022-12-18T07:55:46;29.63;;;11.37;;
65033;SDS011;51601;51.356;12.458;2022-12-18T08:00:20;15.32;;;5.43;;
65033;SDS011;51601;51.356;12.458;2022-12-18T08:04:34;16.65;;;6.72;;
65033;SDS011;51601;51.356;12.458;2022-12-18T08:08:50;15.23;;;5.87;;
65033;SDS011;51601;51.356;12.458;2022-12-18T08:13:04;21.65;;;8.32;;
65033;SDS011;51601;51.356;12.458;2022-12-18T08:17:18;15.48;;;7.30;;
65033;SDS011;51601;51.356;12.458;2022-12-18T08:21:32;32.13;;;11.20;;
65033;SDS011;51601;51.356;12.458;2022-12-18T08:25:48;25.38;;;11.13;;
65033;SDS011;51601;51.356;12.458;2022-12-18T08:30:02;15.35;;;7.82;;
65033;SDS011;51601;51.356;12.458;2022-12-18T08:34:18;22.65;;;9.32;;
65033;SDS011;51601;51.356;12.458;2022-12-18T08:38:32;20.73;;;9.50;;
65033;SDS011;51601;51.356;12.458;2022-12-18T08:42:47;15.98;;;7.68;;
65033;SDS011;51601;51.356;12.458;2022-12-18T08:47:19;23.03;;;9.87;;
65033;SDS011;51601;51.356;12.458;2022-12-18T08:51:33;14.57;;;6.45;;
65033;SDS011;51601;51.356;12.458;2022-12-18T08:55:47;24.40;;;10.15;;
65033;SDS011;51601;51.356;12.458;2022-12-18T09:00:03;20.77;;;9.20;;
65033;SDS011;51601;51.356;12.458;2022-12-18T09:04:17;16.37;;;7.20;;
65033;SDS011;51601;51.356;12.458;2022-12-18T09:08:31;20.75;;;9.48;;
65033;SDS011;51601;51.356;12.458;2022-12-18T09:12:48;27.60;;;9.43;;
65033;SDS011;51601;51.356;12.458;2022-12-18T09:17:03;22.60;;;8.40;;
65033;SDS011;51601;51.356;12.458;2022-12-18T09:21:19;20.48;;;8.88;;
65033;SDS011;51601;51.356;12.458;2022-12-18T09:25:34;19.65;;;8.43;;
65033;SDS011;51601;51.356;12.458;2022-12-18T09:29:48;15.90;;;6.47;;
65033;SDS011;51601;51.356;12.458;2022-12-18T09:34:04;15.40;;;6.72;;
65033;SDS011;51601;51.356;12.458;2022-12-18T09:38:19;12.73;;;5.78;;
65033;SDS011;51601;51.356;12.458;2022-12-18T09:42:35;12.45;;;5.82;;
65033;SDS011;51601;51.356;12.458;2022-12-18T09:46:51;15.67;;;6.03;;
65033;SDS011;51601;51.356;12.458;2022-12-18T09:51:13;12.50;;;5.82;;
65033;SDS011;51601;51.356;12.458;2022-12-18T09:55:29;13.02;;;5.68;;
65033;SDS011;51601;51.356;12.458;2022-12-18T09:59:49;18.13;;;8.07;;
65033;SDS011;51601;51.356;12.458;2022-12-18T10:04:07;15.40;;;7.90;;
65033;SDS011;51601;51.356;12.458;2022-12-18T10:08:24;14.32;;;6.15;;
65033;SDS011;51601;51.356;12.458;2022-12-18T10:12:47;17.90;;;7.10;;
65033;SDS011;51601;51.356;12.458;2022-12-18T10:17:18;15.48;;;6.28;;
65033;SDS011;51601;51.356;12.458;2022-12-18T10:21:42;17.30;;;7.47;;
65033;SDS011;51601;51.356;12.458;2022-12-18T10:26:04;12.07;;;3.65;;
65033;SDS011;51601;51.356;12.458;2022-12-18T10:30:19;13.53;;;5.67;;
65033;SDS011;51601;51.356;12.458;2022-12-18T10:34:35;12.80;;;5.82;;
65033;SDS011;51601;51.356;12.458;2022-12-18T10:38:48;15.38;;;6.38;;
65033;SDS011;51601;51.356;12.458;2022-12-18T10:43:04;15.10;;;7.03;;
65033;SDS011;51601;51.356;12.458;2022-12-18T10:47:23;11.43;;;4.93;;
65033;SDS011;51601;51.356;12.458;2022-12-18T10:51:37;15.63;;;6.50;;
65033;SDS011;51601;51.356;12.458;2022-12-18T10:55:52;18.00;;;6.20;;
65033;SDS011;51601;51.356;12.458;2022-12-18T11:04:50;13.45;;;5.97;;
65033;SDS011;51601;51.356;12.458;2022-12-18T11:09:05;8.75;;;4.10;;
65033;SDS011;51601;51.356;12.458;2022-12-18T11:13:32;17.80;;;6.63;;
65033;SDS011;51601;51.356;12.458;2022-12-18T11:17:48;18.50;;;7.65;;
65033;SDS011;51601;51.356;12.458;2022-12-18T11:22:17;13.73;;;6.50;;
65033;SDS011;51601;51.356;12.458;2022-12-18T11:26:33;14.63;;;6.90;;
65033;SDS011;51601;51.356;12.458;2022-12-18T11:30:49;14.82;;;5.82;;
65033;SDS011;51601;51.356;12.458;2022-12-18T11:35:23;8.23;;;3.97;;
65033;SDS011;51601;51.356;12.458;2022-12-18T11:39:44;16.13;;;7.50;;
65033;SDS011;51601;51.356;12.458;2022-12-18T11:44:03;16.20;;;7.05;;
65033;SDS011;51601;51.356;12.458;2022-12-18T11:48:24;7.78;;;3.15;;
65033;SDS011;51601;51.356;12.458;2022-12-18T11:52:43;5.60;;;2.10;;
65033;SDS011;51601;51.356;12.458;2022-12-18T11:57:03;16.77;;;5.83;;
65033;SDS011;51601;51.356;12.458;2022-12-18T12:01:30;16.50;;;6.53;;
65033;SDS011;51601;51.356;12.458;2022-12-18T12:05:59;19.38;;;7.22;;
65033;SDS011;51601;51.356;12.458;2022-12-18T12:10:26;17.00;;;7.93;;
65033;SDS011;51601;51.356;12.458;2022-12-18T12:14:50;15.80;;;7.25;;
65033;SDS011;51601;51.356;12.458;2022-12-18T12:19:16;13.32;;;5.13;;
65033;SDS011;51601;51.356;12.458;2022-12-18T12:23:41;13.10;;;5.87;;
65033;SDS011;51601;51.356;12.458;2022-12-18T12:28:09;16.08;;;7.65;;
65033;SDS011;51601;51.356;12.458;2022-12-18T12:32:44;18.30;;;7.85;;
65033;SDS011;51601;51.356;12.458;2022-12-18T12:37:28;19.35;;;8.93;;
65033;SDS011;51601;51.356;12.458;2022-12-18T12:41:55;20.87;;;9.17;;
65033;SDS011;51601;51.356;12.458;2022-12-18T12:46:31;19.90;;;8.95;;
65033;SDS011;51601;51.356;12.458;2022-12-18T12:50:48;23.75;;;9.80;;
65033;SDS011;51601;51.356;12.458;2022-12-18T12:55:04;11.70;;;5.33;;
65033;SDS011;51601;51.356;12.458;2022-12-18T12:59:30;22.30;;;9.70;;
65033;SDS011;51601;51.356;12.458;2022-12-18T13:03:56;14.68;;;5.47;;
65033;SDS011;51601;51.356;12.458;2022-12-18T13:08:22;19.40;;;6.93;;
65033;SDS011;51601;51.356;12.458;2022-12-18T13:12:50;21.17;;;9.25;;
65033;SDS011;51601;51.356;12.458;2022-12-18T13:17:29;15.85;;;7.70;;
65033;SDS011;51601;51.356;12.458;2022-12-18T13:21:46;19.70;;;7.03;;
65033;SDS011;51601;51.356;12.458;2022-12-18T13:30:53;18.15;;;7.95;;
65033;SDS011;51601;51.356;12.458;2022-12-18T13:39:53;17.90;;;8.20;;
65033;SDS011;51601;51.356;12.458;2022-12-18T13:44:10;23.52;;;10.27;;
65033;SDS011;51601;51.356;12.458;2022-12-18T13:48:28;28.38;;;12.13;;
65033;SDS011;51601;51.356;12.458;2022-12-18T13:52:44;24.87;;;11.07;;
65033;SDS011;51601;51.356;12.458;2022-12-18T13:57:00;28.35;;;11.70;;
65033;SDS011;51601;51.356;12.458;2022-12-18T14:01:22;30.60;;;12.90;;
65033;SDS011;51601;51.356;12.458;2022-12-18T14:05:36;20.55;;;8.68;;
65033;SDS011;51601;51.356;12.458;2022-12-18T14:09:56;20.17;;;8.23;;
65033;SDS011;51601;51.356;12.458;2022-12-18T14:14:31;30.25;;;11.88;;
65033;SDS011;51601;51.356;12.458;2022-12-18T14:18:46;29.05;;;12.13;;
65033;SDS011;51601;51.356;12.458;2022-12-18T14:27:42;30.40;;;12.27;;
65033;SDS011;51601;51.356;12.458;2022-12-18T14:32:09;29.10;;;12.00;;
65033;SDS011;51601;51.356;12.458;2022-12-18T14:36:29;18.17;;;8.30;;
65033;SDS011;51601;51.356;12.458;2022-12-18T14:40:43;29.02;;;12.13;;
65033;SDS011;51601;51.356;12.458;2022-12-18T14:49:55;25.38;;;11.23;;
65033;SDS011;51601;51.356;12.458;2022-12-18T14:54:13;26.00;;;10.40;;
65033;SDS011;51601;51.356;12.458;2022-12-18T14:58:30;35.75;;;13.13;;
65033;SDS011;51601;51.356;12.458;2022-12-18T15:02:44;18.63;;;8.45;;
65033;SDS011;51601;51.356;12.458;2022-12-18T15:07:07;30.23;;;12.73;;
65033;SDS011;51601;51.356;12.458;2022-12-18T15:11:26;22.92;;;8.23;;
65033;SDS011;51601;51.356;12.458;2022-12-18T15:15:45;23.45;;;9.55;;
65033;SDS011;51601;51.356;12.458;2022-12-18T15:20:03;28.37;;;11.60;;
65033;SDS011;51601;51.356;12.458;2022-12-18T15:24:26;32.45;;;14.07;;
65033;SDS011;51601;51.356;12.458;2022-12-18T15:28:44;34.10;;;15.05;;
65033;SDS011;51601;51.356;12.458;2022-12-18T15:37:35;33.83;;;13.33;;
65033;SDS011;51601;51.356;12.458;2022-12-18T15:41:57;27.52;;;12.15;;
65033;SDS011;51601;51.356;12.458;2022-12-18T15:46:42;29.77;;;13.27;;
65033;SDS011;51601;51.356;12.458;2022-12-18T15:50:56;34.97;;;13.67;;
65033;SDS011;51601;51.356;12.458;2022-12-18T15:55:11;33.25;;;13.82;;
65033;SDS011;51601;51.356;12.458;2022-12-18T15:59:44;31.65;;;13.20;;
65033;SDS011;51601;51.356;12.458;2022-12-18T16:03:59;32.60;;;13.60;;
65033;SDS011;51601;51.356;12.458;2022-12-18T16:08:13;32.13;;;13.68;;
65033;SDS011;51601;51.356;12.458;2022-12-18T16:12:26;29.08;;;12.45;;
65033;SDS011;51601;51.356;12.458;2022-12-18T16:16:42;15.70;;;7.13;;
65033;SDS011;51601;51.356;12.458;2022-12-18T16:20:56;33.23;;;13.50;;
65033;SDS011;51601;51.356;12.458;2022-12-18T16:25:15;18.67;;;6.90;;
65033;SDS011;51601;51.356;12.458;2022-12-18T16:29:35;24.73;;;9.85;;
65033;SDS011;51601;51.356;12.458;2022-12-18T16:33:55;37.73;;;16.17;;
65033;SDS011;51601;51.356;12.458;2022-12-18T16:38:23;20.85;;;9.38;;
65033;SDS011;51601;51.356;12.458;2022-12-18T16:42:36;27.65;;;10.82;;
65033;SDS011;51601;51.356;12.458;2022-12-18T16:46:51;19.40;;;8.53;;
65033;SDS011;51601;51.356;12.458;2022-12-18T16:51:06;28.02;;;12.25;;
65033;SDS011;51601;51.356;12.458;2022-12-18T16:55:21;21.42;;;9.52;;
65033;SDS011;51601;51.356;12.458;2022-12-18T16:59:35;22.40;;;9.33;;
65033;SDS011;51601;51.356;12.458;2022-12-18T17:03:51;29.63;;;13.77;;
65033;SDS011;51601;51.356;12.458;2022-12-18T17:08:07;25.23;;;11.50;;
65033;SDS011;51601;51.356;12.458;2022-12-18T17:12:22;27.25;;;11.13;;
65033;SDS011;51601;51.356;12.458;2022-12-18T17:16:35;20.37;;;8.80;;
65033;SDS011;51601;51.356;12.458;2022-12-18T17:20:51;22.23;;;9.85;;
65033;SDS011;51601;51.356;12.458;2022-12-18T17:25:07;21.77;;;9.32;;
65033;SDS011;51601;51.356;12.458;2022-12-18T17:29:21;23.20;;;8.17;;
65033;SDS011;51601;51.356;12.458;2022-12-18T17:33:36;19.00;;;9.30;;
65033;SDS011;51601;51.356;12.458;2022-12-18T17:37:50;32.10;;;12.05;;
65033;SDS011;51601;51.356;12.458;2022-12-18T17:42:06;19.67;;;7.97;;
65033;SDS011;51601;51.356;12.458;2022-12-18T17:46:27;17.80;;;7.85;;
65033;SDS011;51601;51.356;12.458;2022-12-18T17:50:42;27.90;;;11.15;;
65033;SDS011;51601;51.356;12.458;2022-12-18T17:54:57;19.35;;;7.65;;
65033;SDS011;51601;51.356;12.458;2022-12-18T17:59:14;8.20;;;4.07;;
65033;SDS011;51601;51.356;12.458;2022-12-18T18:03:30;23.42;;;10.52;;
65033;SDS011;51601;51.356;12.458;2022-12-18T18:07:45;26.65;;;11.43;;
65033;SDS011;51601;51.356;12.458;2022-12-18T18:12:02;27.40;;;10.50;;
65033;SDS011;51601;51.356;12.458;2022-12-18T18:16:36;27.70;;;11.32;;
65033;SDS011;51601;51.356;12.458;2022-12-18T18:20:51;18.35;;;7.20;;
65033;SDS011;51601;51.356;12.458;2022-12-18T18:25:05;20.27;;;9.00;;
65033;SDS011;51601;51.356;12.458;2022-12-18T18:29:23;25.08;;;9.85;;
65033;SDS011;51601;51.356;12.458;2022-12-18T18:33:40;25.67;;;10.80;;
65033;SDS011;51601;51.356;12.458;2022-12-18T18:37:55;16.23;;;6.25;;
65033;SDS011;51601;51.356;12.458;2022-12-18T18:42:09;17.60;;;6.87;;
65033;SDS011;51601;51.356;12.458;2022-12-18T18:46:23;13.98;;;5.45;;
65033;SDS011;51601;51.356;12.458;2022-12-18T18:50:38;27.92;;;10.68;;
65033;SDS011;51601;51.356;12.458;2022-12-18T18:54:54;24.07;;;9.60;;
65033;SDS011;51601;51.356;12.458;2022-12-18T18:59:28;23.65;;;9.82;;
65033;SDS011;51601;51.356;12.458;2022-12-18T19:03:43;26.92;;;11.48;;
65033;SDS011;51601;51.356;12.458;2022-12-18T19:07:59;25.87;;;10.23;;
65033;SDS011;51601;51.356;12.458;2022-12-18T19:12:13;15.43;;;6.05;;
65033;SDS011;51601;51.356;12.458;2022-12-18T19:16:44;22.40;;;9.07;;
65033;SDS011;51601;51.356;12.458;2022-12-18T19:20:58;19.30;;;8.75;;
65033;SDS011;51601;51.356;12.458;2022-12-18T19:25:14;19.30;;;8.13;;
65033;SDS011;51601;51.356;12.458;2022-12-18T19:29:29;17.65;;;7.38;;
65033;SDS011;51601;51.356;12.458;2022-12-18T19:33:45;29.33;;;10.82;;
65033;SDS011;51601;51.356;12.458;2022-12-18T19:37:59;28.10;;;11.33;;
65033;SDS011;51601;51.356;12.458;2022-12-18T19:42:14;18.80;;;7.57;;
65033;SDS011;51601;51.356;12.458;2022-12-18T19:46:37;17.10;;;7.80;;
65033;SDS011;51601;51.356;12.458;2022-12-18T19:50:53;21.23;;;9.83;;
65033;SDS011;51601;51.356;12.458;2022-12-18T19:55:07;27.42;;;10.60;;
65033;SDS011;51601;51.356;12.458;2022-12-18T19:59:23;28.17;;;11.02;;
65033;SDS011;51601;51.356;12.458;2022-12-18T20:03:36;23.50;;;8.73;;
65033;SDS011;51601;51.356;12.458;2022-12-18T20:07:51;20.20;;;7.67;;
65033;SDS011;51601;51.356;12.458;2022-12-18T20:12:05;28.05;;;10.40;;
65033;SDS011;51601;51.356;12.458;2022-12-18T20:16:21;20.00;;;7.50;;
65033;SDS011;51601;51.356;12.458;2022-12-18T20:20:35;28.27;;;11.20;;
65033;SDS011;51601;51.356;12.458;2022-12-18T20:24:49;30.08;;;10.98;;
65033;SDS011;51601;51.356;12.458;2022-12-18T20:29:03;32.88;;;12.75;;
65033;SDS011;51601;51.356;12.458;2022-12-18T20:33:18;28.73;;;12.00;;
65033;SDS011;51601;51.356;12.458;2022-12-18T20:37:31;28.05;;;11.15;;
65033;SDS011;51601;51.356;12.458;2022-12-18T20:41:48;27.88;;;12.02;;
65033;SDS011;51601;51.356;12.458;2022-12-18T20:46:03;26.42;;;10.75;;
65033;SDS011;51601;51.356;12.458;2022-12-18T20:50:22;24.83;;;9.07;;
65033;SDS011;51601;51.356;12.458;2022-12-18T20:54:35;24.98;;;10.55;;
65033;SDS011;51601;51.356;12.458;2022-12-18T20:58:49;28.25;;;11.65;;
65033;SDS011;51601;51.356;12.458;2022-12-18T21:03:06;30.37;;;12.27;;
65033;SDS011;51601;51.356;12.458;2022-12-18T21:07:21;26.70;;;11.88;;
65033;SDS011;51601;51.356;12.458;2022-12-18T21:11:35;29.88;;;12.52;;
65033;SDS011;51601;51.356;12.458;2022-12-18T21:16:06;29.57;;;11.20;;
65033;SDS011;51601;51.356;12.458;2022-12-18T21:20:21;30.33;;;13.13;;
65033;SDS011;51601;51.356;12.458;2022-12-18T21:24:37;30.92;;;12.48;;
65033;SDS011;51601;51.356;12.458;2022-12-18T21:28:51;22.55;;;10.02;;
65033;SDS011;51601;51.356;12.458;2022-12-18T21:33:06;30.20;;;12.07;;
65033;SDS011;51601;51.356;12.458;2022-12-18T21:37:20;30.10;;;11.82;;
65033;SDS011;51601;51.356;12.458;2022-12-18T21:41:35;33.70;;;12.45;;
65033;SDS011;51601;51.356;12.458;2022-12-18T21:46:07;33.47;;;11.97;;
65033;SDS011;51601;51.356;12.458;2022-12-18T21:50:21;27.25;;;11.77;;
65033;SDS011;51601;51.356;12.458;2022-12-18T21:54:34;34.70;;;12.18;;
65033;SDS011;51601;51.356;12.458;2022-12-18T21:58:50;27.37;;;12.20;;
65033;SDS011;51601;51.356;12.458;2022-12-18T22:03:08;13.48;;;5.32;;
65033;SDS011;51601;51.356;12.458;2022-12-18T22:07:30;13.35;;;5.82;;
65033;SDS011;51601;51.356;12.458;2022-12-18T22:11:44;27.17;;;11.18;;
65033;SDS011;51601;51.356;12.458;2022-12-18T22:15:59;29.03;;;11.63;;
65033;SDS011;51601;51.356;12.458;2022-12-18T22:20:13;20.48;;;8.25;;
65033;SDS011;51601;51.356;12.458;2022-12-18T22:24:27;28.67;;;11.55;;
65033;SDS011;51601;51.356;12.458;2022-12-18T22:28:41;26.23;;;10.63;;
65033;SDS011;51601;51.356;12.458;2022-12-18T22:33:13;21.45;;;10.07;;
65033;SDS011;51601;51.356;12.458;2022-12-18T22:37:27;23.58;;;9.82;;
65033;SDS011;51601;51.356;12.458;2022-12-18T22:41:41;25.67;;;9.70;;
65033;SDS011;51601;51.356;12.458;2022-12-18T22:45:55;25.55;;;10.30;;
65033;SDS011;51601;51.356;12.458;2022-12-18T22:50:15;29.70;;;11.35;;
65033;SDS011;51601;51.356;12.458;2022-12-18T22:54:29;27.13;;;9.18;;
65033;SDS011;51601;51.356;12.458;2022-12-18T22:58:42;25.40;;;10.30;;
65033;SDS011;51601;51.356;12.458;2022-12-18T23:02:59;26.58;;;11.40;;
65033;SDS011;51601;51.356;12.458;2022-12-18T23:07:14;26.80;;;10.60;;
65033;SDS011;51601;51.356;12.458;2022-12-18T23:11:28;28.10;;;10.10;;
65033;SDS011;51601;51.356;12.458;2022-12-18T23:15:42;18.08;;;6.40;;
65033;SDS011;51601;51.356;12.458;2022-12-18T23:19:56;24.85;;;9.02;;
65033;SDS011;51601;51.356;12.458;2022-12-18T23:24:10;21.57;;;8.43;;
65033;SDS011;51601;51.356;12.458;2022-12-18T23:28:24;26.33;;;9.50;;
65033;SDS011;51601;51.356;12.458;2022-12-18T23:32:40;22.15;;;9.63;;
65033;SDS011;51601;51.356;12.458;2022-12-18T23:36:53;23.83;;;9.30;;
65033;SDS011;51601;51.356;12.458;2022-12-18T23:41:09;27.73;;;10.20;;
65033;SDS011;51601;51.356;12.458;2022-12-18T23:45:24;27.75;;;11.43;;
65033;SDS011;51601;51.356;12.458;2022-12-18T23:49:38;22.38;;;7.50;;
65033;SDS011;51601;51.356;12.458;2022-12-18T23:53:55;28.90;;;10.13;;
65033;SDS011;51601;51.356;12.458;2022-12-18T23:58:15;25.35;;;9.77;;
